createdAt,value
2022-12-13T00:02:07.489Z,87.00
2022-12-13T00:04:37.468Z,87.00
2022-12-13T00:07:07.429Z,87.00
2022-12-13T00:09:38.495Z,87.10
2022-12-13T00:12:08.447Z,87.20
2022-12-13T00:14:38.432Z,87.20
2022-12-13T00:17:09.262Z,87.30
2022-12-13T00:19:39.340Z,87.40
2022-12-13T00:22:09.222Z,87.50
2022-12-13T00:24:42.938Z,87.50
2022-12-13T00:27:16.032Z,87.40
2022-12-13T00:29:45.899Z,87.30
2022-12-13T00:32:15.834Z,87.30
2022-12-13T00:34:45.784Z,87.30
2022-12-13T00:37:15.745Z,87.20
2022-12-13T00:39:45.620Z,87.40
2022-12-13T00:42:15.514Z,87.50
2022-12-13T00:44:45.441Z,87.40
2022-12-13T00:47:15.389Z,87.30
2022-12-13T00:49:45.291Z,87.20
2022-12-13T00:52:15.517Z,87.20
2022-12-13T00:54:45.419Z,87.10
2022-12-13T00:57:15.440Z,87.00
2022-12-13T00:59:45.298Z,86.90
2022-12-13T01:02:15.316Z,86.80
2022-12-13T01:04:45.338Z,86.60
2022-12-13T01:07:15.249Z,86.40
2022-12-13T01:09:45.299Z,86.10
2022-12-13T01:12:15.348Z,85.90
2022-12-13T01:14:45.292Z,85.90
2022-12-13T01:17:15.924Z,85.80
2022-12-13T01:19:45.913Z,85.70
2022-12-13T01:22:15.823Z,85.50
2022-12-13T01:24:45.684Z,85.50
2022-12-13T01:27:15.584Z,85.10
2022-12-13T01:29:45.470Z,84.80
2022-12-13T01:32:15.324Z,85.50
2022-12-13T01:34:45.259Z,84.60
2022-12-13T01:37:15.100Z,84.30
2022-12-13T01:39:44.992Z,84.00
2022-12-13T01:42:17.100Z,83.60
2022-12-13T01:45:08.167Z,83.50
2022-12-13T01:47:47.873Z,83.30
2022-12-13T01:50:28.673Z,83.20
2022-12-13T01:53:00.188Z,82.70
2022-12-13T01:55:41.489Z,82.30
2022-12-13T01:58:12.303Z,82.00
2022-12-13T02:00:43.557Z,81.90
2022-12-13T02:03:21.231Z,81.40
2022-12-13T02:06:04.634Z,81.10
2022-12-13T02:08:36.042Z,80.90
2022-12-13T02:11:07.323Z,80.70
2022-12-13T02:13:36.849Z,80.50
2022-12-13T02:16:40.604Z,79.90
2022-12-13T02:19:50.054Z,79.90
2022-12-13T02:22:53.133Z,79.80
2022-12-13T02:26:01.346Z,79.20
2022-12-13T02:29:10.349Z,79.00
2022-12-13T02:32:04.654Z,79.00
2022-12-13T02:34:58.930Z,78.90
2022-12-13T02:37:55.064Z,78.70
2022-12-13T02:40:40.106Z,78.00
2022-12-13T02:43:16.659Z,78.30
2022-12-13T02:45:56.233Z,77.80
2022-12-13T02:48:32.021Z,77.70
2022-12-13T02:51:04.558Z,77.60
2022-12-13T02:53:36.119Z,77.20
2022-12-13T02:56:06.093Z,76.90
2022-12-13T02:58:39.684Z,77.00
2022-12-13T03:01:41.693Z,77.10
2022-12-13T03:04:37.762Z,76.40
2022-12-13T03:07:27.813Z,76.00
2022-12-13T03:10:10.477Z,75.80
2022-12-13T03:13:16.146Z,75.70
2022-12-13T03:16:24.861Z,75.90
2022-12-13T03:18:57.191Z,75.80
2022-12-13T03:21:28.195Z,75.30
2022-12-13T03:23:58.060Z,75.20
2022-12-13T03:26:28.915Z,75.00
2022-12-13T03:28:58.818Z,74.90
2022-12-13T03:31:28.824Z,74.60
2022-12-13T03:33:58.774Z,73.60
2022-12-13T03:36:29.263Z,73.40
2022-12-13T03:38:59.310Z,73.60
2022-12-13T03:41:34.492Z,73.50
2022-12-13T03:44:09.562Z,73.50
2022-12-13T03:46:39.699Z,73.40
2022-12-13T03:49:13.594Z,72.50
2022-12-13T03:51:47.173Z,71.90
2022-12-13T03:54:17.153Z,71.40
2022-12-13T03:56:47.038Z,70.30
2022-12-13T03:59:17.004Z,70.40
2022-12-13T04:01:46.877Z,69.30
2022-12-13T04:04:16.839Z,68.90
2022-12-13T04:06:46.753Z,68.90
2022-12-13T04:09:16.661Z,69.10
2022-12-13T04:12:06.185Z,69.20
2022-12-13T04:14:36.060Z,69.00
2022-12-13T04:17:05.943Z,68.80
2022-12-13T04:19:35.867Z,68.80
2022-12-13T04:22:06.159Z,68.50
2022-12-13T04:24:35.683Z,67.60
2022-12-13T04:27:05.469Z,67.10
2022-12-13T04:29:35.181Z,67.20
2022-12-13T04:32:26.395Z,67.00
2022-12-13T04:35:01.018Z,66.70
2022-12-13T04:37:31.960Z,66.60
2022-12-13T04:40:01.586Z,64.70
2022-12-13T04:42:31.217Z,61.00
2022-12-13T04:45:00.925Z,63.00
2022-12-13T04:47:30.463Z,64.00
2022-12-13T04:50:00.151Z,64.60
2022-12-13T04:52:29.823Z,64.80
2022-12-13T04:54:59.352Z,64.80
2022-12-13T04:57:29.024Z,62.30
2022-12-13T04:59:58.611Z,62.60
2022-12-13T05:02:28.385Z,59.80
2022-12-13T05:04:57.939Z,61.00
2022-12-13T05:07:28.938Z,61.50
2022-12-13T05:09:58.545Z,59.50
2022-12-13T05:12:28.143Z,58.80
2022-12-13T05:14:57.856Z,58.60
2022-12-13T05:17:27.424Z,59.50
2022-12-13T05:19:57.261Z,59.30
2022-12-13T05:22:28.416Z,58.40
2022-12-13T05:24:58.361Z,58.90
2022-12-13T05:27:28.321Z,59.60
2022-12-13T05:30:02.857Z,59.70
2022-12-13T05:32:43.895Z,60.10
2022-12-13T05:35:21.655Z,60.30
2022-12-13T05:37:55.098Z,60.40
2022-12-13T05:40:29.982Z,60.50
2022-12-13T05:43:01.987Z,60.40
2022-12-13T05:45:34.272Z,59.80
2022-12-13T05:48:04.328Z,58.80
2022-12-13T05:50:34.247Z,59.00
2022-12-13T05:53:05.542Z,57.80
2022-12-13T05:55:35.699Z,58.40
2022-12-13T05:58:05.668Z,58.40
2022-12-13T06:00:43.353Z,58.40
2022-12-13T06:03:13.351Z,58.60
2022-12-13T06:05:45.496Z,58.80
2022-12-13T06:08:24.588Z,58.80
2022-12-13T06:11:09.995Z,59.00
2022-12-13T06:13:42.821Z,59.00
2022-12-13T06:16:22.468Z,59.00
2022-12-13T06:19:03.129Z,59.30
2022-12-13T06:21:41.457Z,59.30
2022-12-13T06:24:22.504Z,59.30
2022-12-13T06:26:53.273Z,59.10
2022-12-13T06:29:25.754Z,59.40
2022-12-13T06:32:02.417Z,58.90
2022-12-13T06:34:35.568Z,59.10
2022-12-13T06:37:09.599Z,58.90
2022-12-13T06:39:39.631Z,59.30
2022-12-13T06:42:22.397Z,59.10
2022-12-13T06:44:56.021Z,59.20
2022-12-13T06:47:31.752Z,56.40
2022-12-13T06:50:05.461Z,56.30
2022-12-13T06:52:36.295Z,56.20
2022-12-13T06:55:06.939Z,56.40
2022-12-13T06:57:37.054Z,56.90
2022-12-13T07:00:08.213Z,56.80
2022-12-13T07:02:39.671Z,56.90
2022-12-13T07:05:10.148Z,57.10
2022-12-13T07:07:40.048Z,56.60
2022-12-13T07:10:21.586Z,56.30
2022-12-13T07:12:51.892Z,55.90
2022-12-13T07:15:21.761Z,56.30
2022-12-13T07:17:54.754Z,56.70
2022-12-13T07:20:25.187Z,56.50
2022-12-13T07:22:59.210Z,55.40
2022-12-13T07:25:30.112Z,54.60
2022-12-13T07:28:05.367Z,55.50
2022-12-13T07:30:42.461Z,55.90
2022-12-13T07:33:13.035Z,55.10
2022-12-13T07:35:55.412Z,55.70
2022-12-13T07:38:25.591Z,55.50
2022-12-13T07:40:59.795Z,56.00
2022-12-13T07:43:30.839Z,56.30
2022-12-13T07:46:07.214Z,56.40
2022-12-13T07:48:37.410Z,55.00
2022-12-13T07:51:13.531Z,55.30
2022-12-13T07:53:43.990Z,55.70
2022-12-13T07:56:14.643Z,56.30
2022-12-13T07:58:45.771Z,56.80
2022-12-13T08:01:15.741Z,56.90
2022-12-13T08:03:45.682Z,56.90
2022-12-13T08:06:15.726Z,57.10
2022-12-13T08:08:45.590Z,57.20
2022-12-13T08:11:19.892Z,57.20
2022-12-13T08:13:49.863Z,57.10
2022-12-13T08:16:26.188Z,56.00
2022-12-13T08:19:03.313Z,54.10
2022-12-13T08:22:01.292Z,55.10
2022-12-13T08:24:33.292Z,55.90
2022-12-13T08:27:05.001Z,56.50
2022-12-13T08:29:36.391Z,56.50
2022-12-13T08:32:14.690Z,56.30
2022-12-13T08:34:44.642Z,54.80
2022-12-13T08:37:15.397Z,55.30
2022-12-13T08:39:46.313Z,55.90
2022-12-13T08:42:20.068Z,56.00
2022-12-13T08:44:53.221Z,55.90
2022-12-13T08:47:26.543Z,56.10
2022-12-13T08:50:01.818Z,56.30
2022-12-13T08:52:39.311Z,56.50
2022-12-13T08:55:15.662Z,56.50
2022-12-13T08:57:46.516Z,56.70
2022-12-13T09:00:21.533Z,56.90
2022-12-13T09:02:52.320Z,57.00
2022-12-13T09:05:32.997Z,57.20
2022-12-13T09:08:24.105Z,57.00
2022-12-13T09:11:10.520Z,57.30
2022-12-13T09:13:43.847Z,57.40
2022-12-13T09:16:23.233Z,57.60
2022-12-13T09:18:56.932Z,57.60
2022-12-13T09:21:31.510Z,57.10
2022-12-13T09:24:03.005Z,57.00
2022-12-13T09:26:37.954Z,57.10
2022-12-13T09:29:10.533Z,57.30
2022-12-13T09:31:42.114Z,57.50
2022-12-13T09:34:12.956Z,57.50
2022-12-13T09:36:43.823Z,57.70
2022-12-13T09:39:13.910Z,57.50
2022-12-13T09:41:53.668Z,57.40
2022-12-13T09:44:48.186Z,57.50
2022-12-13T09:47:47.116Z,55.90
2022-12-13T09:50:28.193Z,56.40
2022-12-13T09:53:00.273Z,56.50
2022-12-13T09:55:36.383Z,56.60
2022-12-13T09:58:16.018Z,56.90
2022-12-13T10:00:46.975Z,57.20
2022-12-13T10:03:18.485Z,57.50
2022-12-13T10:06:01.802Z,57.60
2022-12-13T10:08:40.237Z,57.80
2022-12-13T10:11:13.761Z,58.00
2022-12-13T10:14:05.609Z,58.00
2022-12-13T10:16:51.370Z,58.20
2022-12-13T10:19:46.293Z,58.40
2022-12-13T10:22:21.572Z,58.50
2022-12-13T10:25:06.809Z,58.80
2022-12-13T10:27:47.912Z,59.10
2022-12-13T10:30:28.763Z,59.30
2022-12-13T10:33:05.432Z,59.50
2022-12-13T10:35:43.067Z,59.60
2022-12-13T10:38:32.512Z,59.80
2022-12-13T10:41:02.911Z,60.20
2022-12-13T10:43:33.738Z,60.30
2022-12-13T10:46:05.521Z,60.40
2022-12-13T10:48:48.902Z,60.70
2022-12-13T10:51:23.338Z,60.90
2022-12-13T10:54:00.281Z,61.20
2022-12-13T10:56:42.824Z,61.70
2022-12-13T10:59:33.733Z,62.10
2022-12-13T11:02:22.484Z,62.40
2022-12-13T11:04:53.411Z,62.60
2022-12-13T11:07:33.111Z,63.00
2022-12-13T11:10:27.960Z,63.30
2022-12-13T11:13:07.374Z,63.70
2022-12-13T11:15:40.384Z,63.80
2022-12-13T11:18:26.063Z,64.20
2022-12-13T11:21:09.475Z,64.80
2022-12-13T11:23:47.635Z,65.20
2022-12-13T11:26:24.012Z,65.60
2022-12-13T11:29:29.447Z,65.90
2022-12-13T11:32:22.757Z,66.30
2022-12-13T11:35:15.229Z,66.60
2022-12-13T11:38:24.515Z,67.00
2022-12-13T11:41:31.138Z,67.30
2022-12-13T11:44:11.434Z,67.70
2022-12-13T11:46:53.618Z,68.00
2022-12-13T11:49:44.471Z,68.20
2022-12-13T11:52:53.287Z,68.60
2022-12-13T11:55:38.834Z,69.30
2022-12-13T12:01:42.040Z,69.70
2022-12-13T12:04:53.718Z,70.10
2022-12-13T12:08:21.002Z,70.40
2022-12-13T12:10:49.788Z,70.80
2022-12-13T12:13:26.577Z,71.10
2022-12-13T12:16:28.246Z,71.80
2022-12-13T12:19:01.793Z,72.00
2022-12-13T12:22:15.091Z,72.50
2022-12-13T12:25:09.633Z,72.50
2022-12-13T12:28:08.755Z,73.20
2022-12-13T12:31:11.787Z,73.50
2022-12-13T12:34:12.524Z,73.70
2022-12-13T12:37:11.577Z,74.00
2022-12-13T12:40:07.672Z,74.20
2022-12-13T12:43:16.456Z,74.70
2022-12-13T12:46:25.532Z,74.70
2022-12-13T12:49:34.366Z,75.40
2022-12-13T12:52:39.168Z,75.70
2022-12-13T12:55:35.805Z,75.90
2022-12-13T12:58:44.648Z,76.00
2022-12-13T13:01:53.618Z,76.60
2022-12-13T13:04:29.244Z,76.60
2022-12-13T13:07:23.145Z,76.60
2022-12-13T13:09:55.747Z,76.80
2022-12-13T13:12:29.500Z,77.00
2022-12-13T13:15:00.715Z,77.30
2022-12-13T13:17:49.826Z,77.40
2022-12-13T13:20:30.095Z,77.80
2022-12-13T13:23:38.785Z,77.70
2022-12-13T13:26:23.450Z,77.70
2022-12-13T13:28:47.519Z,77.80
2022-12-13T13:31:17.764Z,78.40
2022-12-13T13:33:53.148Z,78.20
2022-12-13T13:36:50.262Z,78.50
2022-12-13T13:39:22.185Z,78.90
2022-12-13T13:42:19.217Z,79.20
2022-12-13T13:45:03.400Z,79.50
2022-12-13T13:47:42.939Z,79.50
2022-12-13T13:50:51.812Z,79.70
2022-12-13T13:53:57.593Z,79.80
2022-12-13T13:56:55.197Z,79.80
2022-12-13T14:00:03.850Z,80.30
2022-12-13T14:03:22.214Z,80.40
2022-12-13T14:06:32.586Z,80.60
2022-12-13T14:09:41.705Z,80.70
2022-12-13T14:12:50.390Z,80.80
2022-12-13T14:15:59.433Z,81.00
2022-12-13T14:19:08.222Z,80.90
2022-12-13T14:22:04.074Z,81.10
2022-12-13T14:25:12.799Z,81.40
2022-12-13T14:28:04.485Z,81.40
2022-12-13T14:30:35.135Z,81.40
2022-12-13T14:33:05.128Z,81.40
2022-12-13T14:35:36.075Z,81.70
2022-12-13T14:38:08.395Z,81.70
2022-12-13T14:40:49.324Z,81.70
2022-12-13T14:43:33.635Z,81.80
2022-12-13T14:46:06.342Z,82.20
2022-12-13T14:48:47.784Z,82.20
2022-12-13T14:51:39.523Z,82.20
2022-12-13T14:54:16.895Z,82.50
2022-12-13T14:57:06.714Z,82.50
2022-12-13T14:59:36.682Z,82.60
2022-12-13T15:02:08.693Z,82.50
2022-12-13T15:04:39.501Z,82.60
2022-12-13T15:07:15.241Z,82.60
2022-12-13T15:09:47.765Z,82.80
2022-12-13T15:12:24.233Z,82.80
2022-12-13T15:15:08.241Z,82.90
2022-12-13T15:17:40.457Z,82.90
2022-12-13T15:20:32.198Z,83.00
2022-12-13T15:23:09.477Z,83.10
2022-12-13T15:25:40.336Z,83.10
2022-12-13T15:28:18.168Z,83.20
2022-12-13T15:30:50.557Z,83.20
2022-12-13T15:33:34.420Z,83.40
2022-12-13T15:36:20.795Z,83.40
2022-12-13T15:39:03.279Z,83.30
2022-12-13T15:41:44.467Z,83.50
2022-12-13T15:44:25.535Z,83.60
2022-12-13T15:47:10.299Z,83.40
2022-12-13T15:50:03.648Z,83.70
2022-12-13T15:52:48.559Z,84.00
2022-12-13T15:55:28.999Z,84.20
2022-12-13T15:58:00.500Z,84.20
2022-12-13T16:00:33.058Z,84.10
2022-12-13T16:03:16.659Z,84.40
2022-12-13T16:05:56.640Z,84.40
2022-12-13T16:08:37.317Z,84.50
2022-12-13T16:11:08.830Z,84.40
2022-12-13T16:13:40.335Z,84.60
2022-12-13T16:16:31.893Z,84.50
2022-12-13T16:19:03.218Z,84.60
2022-12-13T16:21:32.784Z,84.80
2022-12-13T16:24:02.331Z,84.90
2022-12-13T16:26:33.068Z,84.80
2022-12-13T16:29:02.884Z,84.90
2022-12-13T16:31:37.116Z,85.10
2022-12-13T16:34:08.735Z,85.20
2022-12-13T16:36:38.513Z,85.20
2022-12-13T16:39:12.183Z,84.80
2022-12-13T16:41:48.033Z,85.20
2022-12-13T16:44:42.909Z,85.30
2022-12-13T16:47:22.154Z,85.30
2022-12-13T16:50:04.395Z,85.40
2022-12-13T16:52:34.284Z,85.50
2022-12-13T16:55:04.235Z,85.70
2022-12-13T16:57:33.971Z,85.70
2022-12-13T17:00:03.710Z,85.80
2022-12-13T17:02:33.322Z,85.60
2022-12-13T17:05:02.942Z,85.80
2022-12-13T17:07:37.158Z,85.80
2022-12-13T17:10:07.089Z,85.60
2022-12-13T17:12:36.659Z,85.90
2022-12-13T17:15:06.831Z,85.90
2022-12-13T17:17:38.282Z,86.10
2022-12-13T17:20:10.760Z,86.10
2022-12-13T17:22:40.673Z,86.20
2022-12-13T17:25:11.083Z,86.30
2022-12-13T17:27:42.052Z,86.30
2022-12-13T17:30:16.818Z,87.00
2022-12-13T17:32:46.792Z,86.30
2022-12-13T17:35:18.286Z,86.30
2022-12-13T17:37:49.524Z,86.20
2022-12-13T17:40:19.876Z,86.20
2022-12-13T17:42:53.737Z,86.30
2022-12-13T17:45:24.769Z,86.20
2022-12-13T17:47:54.730Z,86.60
2022-12-13T17:50:24.644Z,86.70
2022-12-13T17:52:54.555Z,86.70
2022-12-13T17:55:24.539Z,86.70
2022-12-13T17:57:56.499Z,86.80
2022-12-13T18:00:27.438Z,87.00
2022-12-13T18:02:57.374Z,86.80
2022-12-13T18:05:27.963Z,87.00
2022-12-13T18:07:57.915Z,86.90
2022-12-13T18:10:30.085Z,86.90
2022-12-13T18:13:00.641Z,87.00
2022-12-13T18:15:30.338Z,87.20
2022-12-13T18:18:15.426Z,87.20
2022-12-13T18:20:46.088Z,87.00
2022-12-13T18:23:16.375Z,87.10
2022-12-13T18:25:46.155Z,87.20
2022-12-13T18:28:15.924Z,87.20
2022-12-13T18:30:45.626Z,87.20
2022-12-13T18:33:15.339Z,87.30
2022-12-13T18:35:45.152Z,87.30
2022-12-13T18:38:15.570Z,87.30
2022-12-13T18:40:45.799Z,87.10
2022-12-13T18:43:15.718Z,87.20
2022-12-13T18:45:45.979Z,87.10
2022-12-13T18:48:16.176Z,87.00
2022-12-13T18:50:48.919Z,87.10
2022-12-13T18:53:19.008Z,87.10
2022-12-13T18:55:48.912Z,87.40
2022-12-13T18:58:18.993Z,87.50
2022-12-13T19:00:49.071Z,87.70
2022-12-13T19:03:19.173Z,87.80
2022-12-13T19:05:49.149Z,87.70
2022-12-13T19:08:18.890Z,87.70
2022-12-13T19:10:49.766Z,87.70
2022-12-13T19:13:19.433Z,87.80
2022-12-13T19:15:49.082Z,87.70
2022-12-13T19:18:18.738Z,87.90
2022-12-13T19:20:55.323Z,87.90
2022-12-13T19:23:25.235Z,87.80
2022-12-13T19:25:55.367Z,88.00
2022-12-13T19:28:25.324Z,88.00
2022-12-13T19:30:55.065Z,88.10
2022-12-13T19:33:24.978Z,88.10
2022-12-13T19:35:54.853Z,88.10
2022-12-13T19:38:25.416Z,88.10
2022-12-13T19:40:55.900Z,88.10
2022-12-13T19:43:26.279Z,88.20
2022-12-13T19:45:56.460Z,88.50
2022-12-13T19:48:26.496Z,88.40
2022-12-13T19:51:01.944Z,88.60
2022-12-13T19:53:32.722Z,88.50
2022-12-13T19:56:02.940Z,88.60
2022-12-13T19:58:32.940Z,88.70
2022-12-13T20:01:06.988Z,88.70
2022-12-13T20:03:43.252Z,88.60
2022-12-13T20:06:15.072Z,88.60
2022-12-13T20:08:45.259Z,88.60
2022-12-13T20:11:20.725Z,88.60
2022-12-13T20:13:51.906Z,88.50
2022-12-13T20:16:24.354Z,88.70
2022-12-13T20:18:59.824Z,88.80
2022-12-13T20:21:30.868Z,88.60
2022-12-13T20:24:00.925Z,88.60
2022-12-13T20:26:32.953Z,88.90
2022-12-13T20:29:02.648Z,88.80
2022-12-13T20:31:35.345Z,88.80
2022-12-13T20:34:08.349Z,88.70
2022-12-13T20:36:38.485Z,88.90
2022-12-13T20:39:09.758Z,88.90
2022-12-13T20:41:40.207Z,89.00
2022-12-13T20:44:11.355Z,88.90
2022-12-13T20:46:41.408Z,88.90
2022-12-13T20:49:11.846Z,88.90
2022-12-13T20:51:43.431Z,88.90
2022-12-13T20:54:13.160Z,89.00
2022-12-13T20:56:42.968Z,89.10
2022-12-13T20:59:14.966Z,89.10
2022-12-13T21:01:48.905Z,89.10
2022-12-13T21:04:19.159Z,89.10
2022-12-13T21:06:48.749Z,89.20
2022-12-13T21:09:18.587Z,89.30
2022-12-13T21:11:51.545Z,89.30
2022-12-13T21:14:31.814Z,89.40
2022-12-13T21:17:03.957Z,89.40
2022-12-13T21:19:39.357Z,89.40
2022-12-13T21:22:10.356Z,89.40
2022-12-13T21:24:40.278Z,89.40
2022-12-13T21:27:10.227Z,89.50
2022-12-13T21:29:40.201Z,89.40
2022-12-13T21:32:10.641Z,89.50
2022-12-13T21:34:41.498Z,89.60
2022-12-13T21:37:11.492Z,89.70
2022-12-13T21:39:42.153Z,89.70
2022-12-13T21:42:12.308Z,89.60
2022-12-13T21:44:42.276Z,89.60
2022-12-13T21:47:13.205Z,89.70
2022-12-13T21:49:48.695Z,89.70
2022-12-13T21:52:19.256Z,89.80
2022-12-13T21:54:52.780Z,90.00
2022-12-13T21:57:45.296Z,89.90
2022-12-13T22:00:16.160Z,90.00
2022-12-13T22:02:47.119Z,90.00
2022-12-13T22:05:17.059Z,90.00
2022-12-13T22:07:48.241Z,90.10
2022-12-13T22:10:17.911Z,90.10
2022-12-13T22:12:47.587Z,90.00
2022-12-13T22:15:17.997Z,90.10
2022-12-13T22:17:47.611Z,90.10
2022-12-13T22:20:17.877Z,90.10
2022-12-13T22:22:50.123Z,90.20
2022-12-13T22:25:20.504Z,90.10
2022-12-13T22:27:50.133Z,90.10
2022-12-13T22:30:19.862Z,90.20
2022-12-13T22:32:49.550Z,90.10
2022-12-13T22:35:19.196Z,90.20
2022-12-13T22:37:51.743Z,90.10
2022-12-13T22:40:23.096Z,90.20
2022-12-13T22:42:53.352Z,90.50
2022-12-13T22:45:23.239Z,90.20
2022-12-13T22:47:53.187Z,90.30
2022-12-13T22:50:23.170Z,90.40
2022-12-13T22:52:53.105Z,90.40
2022-12-13T22:55:23.185Z,90.40
2022-12-13T22:57:53.395Z,90.40
2022-12-13T23:00:23.439Z,90.40
2022-12-13T23:02:56.278Z,90.40
2022-12-13T23:05:26.256Z,90.40
2022-12-13T23:07:56.205Z,90.40
2022-12-13T23:10:45.464Z,90.30
2022-12-13T23:13:18.044Z,90.30
2022-12-13T23:15:49.441Z,90.30
2022-12-13T23:18:19.277Z,90.60
2022-12-13T23:20:49.059Z,90.30
2022-12-13T23:23:18.716Z,90.30
2022-12-13T23:25:48.954Z,90.30
2022-12-13T23:28:18.884Z,90.30
2022-12-13T23:30:48.533Z,90.40
2022-12-13T23:33:18.177Z,90.50
2022-12-13T23:35:47.889Z,90.50
2022-12-13T23:38:17.476Z,90.50
2022-12-13T23:40:48.204Z,90.50
2022-12-13T23:43:18.445Z,90.50
2022-12-13T23:45:48.395Z,90.50
2022-12-13T23:48:22.364Z,90.50
2022-12-13T23:50:55.804Z,90.50
2022-12-13T23:53:26.131Z,90.50
2022-12-13T23:55:56.109Z,90.50
2022-12-13T23:58:27.670Z,90.50
